Time;durP1;ratioP1;P1;durP2;ratioP2;P2;SDS_P1;SDS_P2;PMS_P1;PMS_P2;Temp;Humidity;BMP_temperature;BMP_pressure;BME280_temperature;BME280_humidity;BME280_pressure;Samples;Min_cycle;Max_cycle;Signal;HPM_P1;HPM_P2
2023/12/20 00:02:02;;;;;;;19.10;14.10;;;;;;;13.51;54.44;101860.23;110632;1251;22350;-55
2023/12/20 00:04:29;;;;;;;19.40;13.60;;;;;;;13.52;54.46;101858.45;110509;1255;22316;-55
2023/12/20 00:06:56;;;;;;;19.90;14.10;;;;;;;13.53;54.42;101852.88;110647;1266;22138;-55
2023/12/20 00:09:23;;;;;;;19.10;13.90;;;;;;;13.54;54.48;101846.94;110707;1263;22272;-55
2023/12/20 00:11:50;;;;;;;18.90;14.70;;;;;;;13.54;54.58;101842.23;109887;1250;1002336;-55
2023/12/20 00:14:17;;;;;;;20.40;14.60;;;;;;;13.56;54.67;101843.42;110711;1260;22387;-55
2023/12/20 00:16:44;;;;;;;19.90;14.80;;;;;;;13.57;54.72;101840.09;109881;1255;1002098;-55
2023/12/20 00:19:11;;;;;;;19.20;13.90;;;;;;;13.58;54.67;101833.27;110655;1254;23075;-55
2023/12/20 00:21:38;;;;;;;19.40;15.00;;;;;;;13.60;54.67;101827.14;110679;1251;22280;-55
2023/12/20 00:24:06;;;;;;;19.80;14.10;;;;;;;13.59;54.81;101831.33;109914;1251;1002181;-55
2023/12/20 00:26:32;;;;;;;19.60;14.30;;;;;;;13.60;54.75;101829.23;110592;1265;22361;-55
2023/12/20 00:28:59;;;;;;;20.20;14.00;;;;;;;13.59;54.68;101830.10;110690;1250;22400;-55
2023/12/20 00:31:26;;;;;;;18.60;14.00;;;;;;;13.59;54.61;101828.54;110572;1256;22271;-55
2023/12/20 00:33:53;;;;;;;23.30;15.40;;;;;;;13.60;54.54;101828.70;110609;1256;22600;-55
2023/12/20 00:36:20;;;;;;;18.80;14.20;;;;;;;13.61;54.36;101826.25;110458;1253;22763;-54
2023/12/20 00:38:48;;;;;;;18.40;13.60;;;;;;;13.61;54.24;101826.23;110460;1262;22199;-55
2023/12/20 00:41:14;;;;;;;17.40;13.60;;;;;;;13.61;54.14;101820.48;110668;1254;22124;-55
2023/12/20 00:43:41;;;;;;;16.50;14.00;;;;;;;13.61;54.07;101816.47;110663;1255;22248;-55
2023/12/20 00:46:08;;;;;;;19.30;13.60;;;;;;;13.60;53.97;101811.80;109924;1250;1002399;-55
2023/12/20 00:48:36;;;;;;;18.50;13.40;;;;;;;13.60;53.97;101805.88;110471;1257;22160;-55
2023/12/20 00:51:03;;;;;;;18.20;12.60;;;;;;;13.59;53.98;101799.77;110671;1260;22273;-55
2023/12/20 00:53:30;;;;;;;19.80;12.80;;;;;;;13.58;53.97;101795.97;110652;1261;22875;-55
2023/12/20 00:55:58;;;;;;;15.70;12.00;;;;;;;13.56;53.98;101792.34;110684;1250;22390;-55
2023/12/20 00:58:26;;;;;;;15.40;11.90;;;;;;;13.55;54.12;101785.90;110593;1251;22476;-55
2023/12/20 01:00:53;;;;;;;16.80;12.00;;;;;;;13.54;54.23;101782.95;110482;1266;22426;-55
2023/12/20 01:03:20;;;;;;;17.80;12.40;;;;;;;13.54;54.27;101781.22;110639;1262;22365;-55
2023/12/20 01:05:47;;;;;;;18.10;11.90;;;;;;;13.53;54.28;101776.00;110640;1260;22904;-55
2023/12/20 01:08:13;;;;;;;18.30;12.80;;;;;;;13.51;54.33;101771.84;110637;1250;22310;-55
2023/12/20 01:10:40;;;;;;;13.20;11.60;;;;;;;13.49;54.52;101764.39;110718;1256;22174;-55
2023/12/20 01:13:08;;;;;;;17.30;12.60;;;;;;;13.47;54.68;101758.48;110649;1250;22347;-55
2023/12/20 01:15:35;;;;;;;18.80;13.00;;;;;;;13.45;54.87;101756.08;110645;1256;22151;-55
2023/12/20 01:18:02;;;;;;;17.40;11.70;;;;;;;13.45;55.14;101755.92;110682;1254;22994;-55
2023/12/20 01:20:29;;;;;;;16.60;11.60;;;;;;;13.45;55.23;101757.48;110653;1255;23068;-55
2023/12/20 01:22:55;;;;;;;14.60;10.70;;;;;;;13.45;55.40;101754.33;110502;1265;22371;-55
2023/12/20 01:25:23;;;;;;;18.40;11.60;;;;;;;13.46;55.58;101751.37;110489;1259;22198;-55
2023/12/20 01:27:50;;;;;;;14.90;11.00;;;;;;;13.48;55.68;101748.71;110476;1254;22377;-55
2023/12/20 01:30:16;;;;;;;11.60;10.40;;;;;;;13.49;55.76;101746.08;110469;1259;23158;-55
2023/12/20 01:32:43;;;;;;;12.80;10.00;;;;;;;13.52;55.98;101735.56;110665;1255;22325;-55
2023/12/20 01:35:12;;;;;;;20.10;11.50;;;;;;;13.54;56.06;101732.40;109963;1250;1006394;-55
2023/12/20 01:37:39;;;;;;;15.00;10.00;;;;;;;13.56;56.15;101727.13;109930;1253;1002083;-55
2023/12/20 01:40:06;;;;;;;17.00;10.30;;;;;;;13.57;56.18;101726.06;110626;1266;22407;-55
2023/12/20 01:42:33;;;;;;;15.00;10.00;;;;;;;13.58;56.31;101718.20;110673;1260;22318;-55
2023/12/20 01:45:00;;;;;;;13.80;10.40;;;;;;;13.61;56.36;101716.77;110604;1251;22302;-55
2023/12/20 01:47:28;;;;;;;14.20;9.40;;;;;;;13.62;56.31;101710.80;110654;1253;22151;-56
2023/12/20 01:49:56;;;;;;;15.70;9.90;;;;;;;13.64;56.41;101705.20;110648;1259;22399;-55
2023/12/20 01:52:23;;;;;;;11.10;9.30;;;;;;;13.64;56.43;101704.14;109865;1256;1002301;-55
2023/12/20 01:54:50;;;;;;;13.80;9.20;;;;;;;13.66;56.30;101703.05;110699;1254;23181;-55
2023/12/20 01:57:17;;;;;;;14.00;9.90;;;;;;;13.67;56.41;101702.15;110587;1256;22338;-55
2023/12/20 01:59:43;;;;;;;11.70;9.20;;;;;;;13.67;56.43;101704.60;110609;1263;22152;-55
2023/12/20 02:02:12;;;;;;;12.00;9.40;;;;;;;13.68;56.48;101703.54;110535;1257;22174;-55
2023/12/20 02:04:39;;;;;;;13.10;8.60;;;;;;;13.67;56.47;101703.02;110651;1254;22861;-55
2023/12/20 02:07:05;;;;;;;12.40;8.90;;;;;;;13.68;56.47;101701.80;109706;1262;1002401;-55
2023/12/20 02:09:32;;;;;;;14.00;8.80;;;;;;;13.68;56.47;101701.80;110554;1256;22323;-56
2023/12/20 02:11:59;;;;;;;10.90;7.70;;;;;;;13.69;56.44;101702.48;110685;1255;22268;-55
2023/12/20 02:14:26;;;;;;;16.80;7.30;;;;;;;13.70;56.41;101702.64;110685;1263;22177;-55
2023/12/20 02:16:52;;;;;;;12.70;8.00;;;;;;;13.71;56.40;101699.63;110676;1263;22296;-55
2023/12/20 02:19:19;;;;;;;11.30;7.40;;;;;;;13.72;56.35;101699.45;110697;1251;22749;-55
2023/12/20 02:21:46;;;;;;;8.70;6.80;;;;;;;13.73;56.34;101691.05;110628;1260;23016;-55
2023/12/20 02:24:13;;;;;;;9.30;6.80;;;;;;;13.73;56.30;101686.51;110630;1254;22253;-55
2023/12/20 02:26:40;;;;;;;11.30;7.60;;;;;;;13.73;56.27;101684.77;110676;1250;22283;-55
2023/12/20 02:29:10;;;;;;;12.10;7.60;;;;;;;13.74;56.32;101681.27;110628;1266;22151;-55
2023/12/20 02:31:37;;;;;;;12.80;6.80;;;;;;;13.75;56.26;101681.96;110628;1256;22380;-55
2023/12/20 02:34:04;;;;;;;10.50;6.90;;;;;;;13.75;56.27;101681.44;109893;1254;1002289;-55
2023/12/20 02:36:31;;;;;;;10.30;6.70;;;;;;;13.74;56.47;101675.70;110494;1263;22901;-55
2023/12/20 02:38:58;;;;;;;10.20;7.30;;;;;;;13.72;56.56;101671.04;110480;1263;22129;-55
2023/12/20 02:41:25;;;;;;;13.60;6.70;;;;;;;13.72;56.69;101665.60;110451;1270;22144;-55
2023/12/20 02:43:52;;;;;;;12.30;7.40;;;;;;;13.74;56.68;101656.88;110601;1254;22129;-55
2023/12/20 02:46:19;;;;;;;11.10;6.80;;;;;;;13.75;56.77;101654.58;110435;1266;22377;-55
2023/12/20 02:48:47;;;;;;;13.30;7.10;;;;;;;13.75;56.92;101656.85;110613;1254;22345;-55
2023/12/20 02:51:14;;;;;;;9.60;7.00;;;;;;;13.76;57.02;101657.70;110660;1266;22147;-55
2023/12/20 02:53:41;;;;;;;9.80;6.80;;;;;;;13.77;57.12;101658.53;110674;1263;23021;-55
2023/12/20 02:56:08;;;;;;;9.40;7.10;;;;;;;13.78;57.17;101658.16;109909;1260;1003029;-55
2023/12/20 02:58:35;;;;;;;10.10;7.00;;;;;;;13.80;57.16;101654.98;110490;1256;22310;-55
2023/12/20 03:01:02;;;;;;;12.00;7.00;;;;;;;13.81;57.28;101654.08;110600;1256;23014;-55
2023/12/20 03:03:29;;;;;;;12.70;7.40;;;;;;;13.81;57.41;101652.88;110676;1260;22370;-56
2023/12/20 03:05:56;;;;;;;11.20;7.50;;;;;;;13.81;57.56;101658.80;109742;1257;1002663;-55
2023/12/20 03:08:23;;;;;;;9.20;7.40;;;;;;;13.82;57.65;101659.46;110655;1254;23082;-55
2023/12/20 03:10:50;;;;;;;11.90;7.90;;;;;;;13.83;57.76;101653.35;110202;1269;22357;-55
2023/12/20 03:13:17;;;;;;;11.80;7.70;;;;;;;13.84;57.69;101647.23;110466;1269;22486;-55
2023/12/20 03:15:44;;;;;;;10.40;7.20;;;;;;;13.86;57.70;101642.81;110526;1257;22861;-55
2023/12/20 03:18:11;;;;;;;12.60;7.90;;;;;;;13.87;57.66;101640.01;110710;1255;22561;-55
2023/12/20 03:20:37;;;;;;;13.00;7.80;;;;;;;13.89;57.73;101635.07;110688;1255;22955;-55
2023/12/20 03:23:04;;;;;;;13.30;7.60;;;;;;;13.89;57.79;101630.36;110658;1263;22132;-55
2023/12/20 03:25:32;;;;;;;13.00;7.50;;;;;;;13.90;57.85;101624.08;110615;1263;22251;-56
2023/12/20 03:28:00;;;;;;;11.50;7.20;;;;;;;13.90;57.84;101618.33;110677;1254;22381;-55
2023/12/20 03:30:26;;;;;;;11.90;6.90;;;;;;;13.91;57.84;101617.08;110610;1256;22413;-55
2023/12/20 03:32:53;;;;;;;14.70;8.60;;;;;;;13.92;57.84;101614.09;110677;1262;22306;-55
2023/12/20 03:35:20;;;;;;;12.80;7.60;;;;;;;13.91;57.92;101617.23;110679;1259;22411;-55
2023/12/20 03:37:47;;;;;;;9.70;6.50;;;;;;;13.92;57.93;101614.96;109894;1260;1002587;-55
2023/12/20 03:40:14;;;;;;;14.40;7.50;;;;;;;13.92;57.92;101614.61;110615;1251;22823;-55
2023/12/20 03:42:41;;;;;;;10.70;7.30;;;;;;;13.92;57.97;101608.68;110681;1251;23070;-55
2023/12/20 03:45:09;;;;;;;12.80;7.60;;;;;;;13.91;58.01;101606.08;110640;1250;22326;-55
2023/12/20 03:47:35;;;;;;;11.60;7.50;;;;;;;13.91;58.03;101606.42;110436;1259;22295;-55
2023/12/20 03:50:03;;;;;;;11.40;7.10;;;;;;;13.90;58.13;101600.36;110620;1257;22810;-56
2023/12/20 03:52:30;;;;;;;11.90;7.00;;;;;;;13.89;58.22;101602.63;110623;1257;22093;-55
2023/12/20 03:54:56;;;;;;;12.50;7.60;;;;;;;13.89;58.18;101602.30;110665;1256;22938;-56
2023/12/20 03:57:23;;;;;;;10.00;7.40;;;;;;;13.88;58.28;101599.70;110653;1256;22342;-55
2023/12/20 03:59:50;;;;;;;10.50;6.60;;;;;;;13.89;58.33;101598.11;110673;1254;22282;-56
2023/12/20 04:02:17;;;;;;;10.80;7.80;;;;;;;13.89;58.33;101600.19;110474;1259;22209;-55
2023/12/20 04:04:44;;;;;;;7.90;6.50;;;;;;;13.89;58.31;101600.19;110610;1253;22407;-55
2023/12/20 04:07:11;;;;;;;9.10;6.40;;;;;;;13.90;58.37;101600.88;109910;1260;1002437;-55
2023/12/20 04:09:38;;;;;;;12.10;7.00;;;;;;;13.89;58.37;101596.53;110620;1256;23134;-56
2023/12/20 04:12:05;;;;;;;10.70;6.60;;;;;;;13.89;58.40;101593.56;110592;1254;22262;-55
2023/12/20 04:14:32;;;;;;;8.20;6.50;;;;;;;13.89;58.34;101594.63;110734;1254;22100;-56
2023/12/20 04:16:59;;;;;;;11.90;6.20;;;;;;;13.89;58.41;101595.30;110725;1253;22144;-56
2023/12/20 04:19:26;;;;;;;12.10;6.70;;;;;;;13.90;58.48;101590.59;110688;1266;22422;-56
2023/12/20 04:21:52;;;;;;;10.60;5.90;;;;;;;13.91;58.52;101593.88;110168;1260;22493;-55
2023/12/20 04:24:19;;;;;;;12.90;6.10;;;;;;;13.92;58.43;101594.03;110626;1262;22206;-56
2023/12/20 04:26:46;;;;;;;8.80;6.30;;;;;;;13.93;58.39;101590.70;110603;1251;22117;-55
2023/12/20 04:29:14;;;;;;;10.20;6.50;;;;;;;13.92;58.46;101593.50;110666;1255;22258;-55
2023/12/20 04:31:40;;;;;;;11.60;6.30;;;;;;;13.91;58.44;101595.61;110578;1263;22385;-55
2023/12/20 04:34:07;;;;;;;9.30;5.80;;;;;;;13.90;58.49;101595.64;110616;1255;22300;-57
2023/12/20 04:36:34;;;;;;;11.50;5.90;;;;;;;13.89;58.59;101590.08;110672;1256;22381;-55
2023/12/20 04:39:01;;;;;;;12.70;5.50;;;;;;;13.90;58.62;101589.38;110724;1263;22363;-55
2023/12/20 04:41:28;;;;;;;9.10;6.10;;;;;;;13.91;58.56;101588.98;110687;1255;22386;-55
2023/12/20 04:43:55;;;;;;;8.60;5.00;;;;;;;13.92;58.57;101592.11;110690;1251;23103;-56
2023/12/20 04:46:22;;;;;;;10.30;6.40;;;;;;;13.93;58.57;101593.15;110657;1254;23026;-55
2023/12/20 04:48:48;;;;;;;10.10;5.70;;;;;;;13.94;58.58;101595.21;110660;1254;22366;-55
2023/12/20 04:51:15;;;;;;;8.30;5.60;;;;;;;13.94;58.54;101593.11;110538;1253;22319;-55
2023/12/20 04:53:42;;;;;;;9.00;5.20;;;;;;;13.96;58.49;101590.45;110631;1263;22231;-55
2023/12/20 04:56:09;;;;;;;10.10;5.90;;;;;;;13.96;58.54;101588.02;110687;1255;22271;-55
2023/12/20 04:58:36;;;;;;;10.40;6.70;;;;;;;13.97;58.51;101584.34;110694;1262;22390;-55
2023/12/20 05:01:03;;;;;;;11.20;5.60;;;;;;;13.97;58.57;101585.56;110672;1254;22726;-55
2023/12/20 05:03:30;;;;;;;10.00;5.40;;;;;;;13.99;58.53;101584.11;110659;1254;23418;-55
2023/12/20 05:05:58;;;;;;;11.10;6.00;;;;;;;14.00;58.45;101579.91;110525;1258;22760;-56
2023/12/20 05:08:25;;;;;;;13.30;5.80;;;;;;;14.01;58.47;101579.88;110661;1260;22117;-55
2023/12/20 05:10:53;;;;;;;10.50;5.40;;;;;;;14.01;58.45;101579.71;110564;1254;22195;-55
2023/12/20 05:13:21;;;;;;;10.30;5.80;;;;;;;14.02;58.46;101574.79;110612;1263;22375;-55
2023/12/20 05:15:48;;;;;;;12.20;6.20;;;;;;;14.02;58.46;101572.00;110637;1255;22275;-56
2023/12/20 05:18:15;;;;;;;8.20;5.30;;;;;;;14.02;58.44;101567.64;110614;1255;22134;-55
2023/12/20 05:20:42;;;;;;;11.90;5.00;;;;;;;14.02;58.44;101565.54;110718;1254;22207;-55
2023/12/20 05:23:08;;;;;;;9.90;5.20;;;;;;;14.02;58.48;101559.27;110641;1250;22361;-55
2023/12/20 05:25:35;;;;;;;13.00;5.80;;;;;;;14.03;58.48;101558.02;110611;1256;22151;-55
2023/12/20 05:28:02;;;;;;;10.80;5.80;;;;;;;14.02;58.47;101558.91;110663;1262;22280;-55
2023/12/20 05:30:30;;;;;;;12.40;5.70;;;;;;;14.03;58.57;101553.33;110693;1262;22451;-55
2023/12/20 05:32:57;;;;;;;8.20;5.10;;;;;;;14.03;58.49;101553.67;110461;1267;22229;-56
2023/12/20 05:35:24;;;;;;;11.20;5.50;;;;;;;14.04;58.56;101553.46;110472;1269;22281;-55
2023/12/20 05:37:51;;;;;;;10.50;5.20;;;;;;;14.05;58.55;101554.50;110659;1264;23022;-55
2023/12/20 05:40:17;;;;;;;11.60;5.80;;;;;;;14.04;58.56;101556.59;110494;1266;22355;-55
2023/12/20 05:42:44;;;;;;;9.90;5.20;;;;;;;14.05;58.61;101560.40;110647;1254;22324;-55
2023/12/20 05:45:11;;;;;;;13.10;5.40;;;;;;;14.06;58.61;101560.75;110652;1255;22163;-56
2023/12/20 05:47:38;;;;;;;9.90;5.30;;;;;;;14.07;58.59;101560.18;110592;1257;22426;-56
2023/12/20 05:50:05;;;;;;;8.40;5.40;;;;;;;14.08;58.64;101564.34;110664;1254;22115;-55
2023/12/20 05:52:32;;;;;;;10.80;5.60;;;;;;;14.08;58.70;101564.52;109828;1261;1002408;-55
2023/12/20 05:55:01;;;;;;;11.70;5.30;;;;;;;14.02;58.85;101565.02;110614;1254;23075;-55
2023/12/20 05:57:28;;;;;;;7.10;5.00;;;;;;;14.08;58.82;101564.02;110575;1265;22148;-56
2023/12/20 05:59:54;;;;;;;8.90;5.10;;;;;;;14.10;58.81;101560.48;110600;1254;22436;-56
2023/12/20 06:02:21;;;;;;;10.90;4.90;;;;;;;14.12;58.72;101556.95;110643;1254;22355;-55
2023/12/20 06:04:48;;;;;;;11.20;5.00;;;;;;;14.14;58.80;101561.23;110624;1263;22133;-56
2023/12/20 06:07:15;;;;;;;13.10;6.20;;;;;;;14.15;58.75;101561.05;110428;1267;22163;-55
2023/12/20 06:09:42;;;;;;;13.20;5.10;;;;;;;14.17;58.75;101560.83;109703;1254;1007010;-55
2023/12/20 06:12:10;;;;;;;12.40;6.10;;;;;;;14.18;58.80;101558.19;110628;1262;22873;-55
2023/12/20 06:14:36;;;;;;;10.00;4.70;;;;;;;14.20;58.88;101556.56;110652;1254;22531;-56
2023/12/20 06:17:03;;;;;;;11.10;5.40;;;;;;;14.22;58.89;101554.77;110627;1263;22414;-55
2023/12/20 06:19:30;;;;;;;7.40;5.00;;;;;;;14.26;58.86;101552.93;110673;1256;22176;-56
2023/12/20 06:21:57;;;;;;;10.70;5.10;;;;;;;14.29;58.90;101548.86;110671;1263;22145;-56
2023/12/20 06:24:27;;;;;;;9.70;5.50;;;;;;;14.32;58.84;101544.06;110434;1272;23087;-56
2023/12/20 06:26:55;;;;;;;13.20;5.30;;;;;;;14.36;58.83;101541.37;110605;1255;23043;-56
2023/12/20 06:29:22;;;;;;;7.60;5.20;;;;;;;14.37;58.80;101540.81;110393;1263;22220;-56
2023/12/20 06:31:49;;;;;;;10.00;5.20;;;;;;;14.40;58.88;101536.22;110647;1253;23079;-55
2023/12/20 06:34:15;;;;;;;10.80;5.10;;;;;;;14.42;58.79;101535.30;109797;1254;1002315;-55
2023/12/20 06:36:42;;;;;;;12.00;4.80;;;;;;;14.45;58.74;101532.59;110626;1254;22111;-55
2023/12/20 06:39:12;;;;;;;12.40;4.90;;;;;;;14.47;58.66;101531.83;110603;1254;23091;-55
2023/12/20 06:41:39;;;;;;;13.50;5.10;;;;;;;14.49;58.71;101535.10;110603;1266;22117;-55
2023/12/20 06:44:06;;;;;;;8.30;4.90;;;;;;;14.51;58.70;101535.58;110667;1254;22119;-55
2023/12/20 06:46:33;;;;;;;13.70;5.80;;;;;;;14.54;58.68;101537.77;110659;1263;22285;-55
2023/12/20 06:48:59;;;;;;;9.60;5.00;;;;;;;14.56;58.63;101535.62;110642;1255;22850;-55
2023/12/20 06:51:26;;;;;;;11.90;5.80;;;;;;;14.58;58.56;101538.52;110668;1256;22129;-55
2023/12/20 06:53:53;;;;;;;12.70;5.40;;;;;;;14.61;58.58;101541.25;110603;1266;22821;-55
2023/12/20 06:56:22;;;;;;;10.10;5.10;;;;;;;14.62;58.52;101539.48;110664;1263;23151;-55
2023/12/20 06:58:49;;;;;;;9.60;5.30;;;;;;;14.66;58.53;101546.71;110312;1260;22196;-55
2023/12/20 07:01:16;;;;;;;10.00;4.90;;;;;;;14.68;58.40;101546.64;110458;1259;23071;-55
2023/12/20 07:03:43;;;;;;;11.90;5.30;;;;;;;14.72;58.38;101542.04;110521;1266;22301;-55
2023/12/20 07:06:10;;;;;;;9.40;5.00;;;;;;;14.75;58.33;101542.30;110644;1263;22164;-55
2023/12/20 07:08:36;;;;;;;14.70;6.10;;;;;;;14.77;58.33;101543.45;110681;1263;22158;-55
2023/12/20 07:11:03;;;;;;;10.60;5.30;;;;;;;14.80;58.26;101541.47;110665;1256;22105;-55
2023/12/20 07:13:30;;;;;;;11.90;5.60;;;;;;;14.82;58.14;101542.81;110696;1263;22370;-55
2023/12/20 07:15:57;;;;;;;7.70;4.70;;;;;;;14.83;58.12;101543.66;110674;1257;22349;-55
2023/12/20 07:18:24;;;;;;;9.80;4.80;;;;;;;14.85;57.98;101538.02;110636;1263;22741;-55
2023/12/20 07:20:51;;;;;;;8.50;5.00;;;;;;;14.87;57.99;101541.09;110419;1274;22402;-55
2023/12/20 07:23:20;;;;;;;10.90;5.70;;;;;;;14.90;57.97;101541.35;110641;1263;22129;-55
2023/12/20 07:25:46;;;;;;;10.60;5.70;;;;;;;14.94;57.94;101538.64;110645;1254;23210;-55
2023/12/20 07:28:13;;;;;;;10.50;5.60;;;;;;;14.97;57.81;101536.98;110619;1255;22981;-55
2023/12/20 07:30:40;;;;;;;10.10;5.50;;;;;;;14.99;57.71;101537.44;110481;1274;22976;-55
2023/12/20 07:33:08;;;;;;;9.40;5.60;;;;;;;15.02;57.66;101534.21;110691;1257;22094;-55
2023/12/20 07:35:35;;;;;;;8.40;5.40;;;;;;;15.04;57.50;101534.15;110666;1255;22129;-55
2023/12/20 07:38:02;;;;;;;11.30;5.30;;;;;;;15.05;57.46;101532.38;110748;1251;22313;-55
2023/12/20 07:40:29;;;;;;;10.30;5.80;;;;;;;15.06;57.37;101528.16;110662;1254;22318;-55
2023/12/20 07:42:58;;;;;;;14.60;5.20;;;;;;;15.08;57.43;101530.38;110680;1256;22378;-54
2023/12/20 07:45:25;;;;;;;12.50;6.00;;;;;;;15.12;57.48;101531.48;110534;1257;22280;-55
2023/12/20 07:47:51;;;;;;;10.90;5.80;;;;;;;15.15;57.36;101528.95;110655;1255;22395;-55
2023/12/20 07:50:18;;;;;;;10.00;6.00;;;;;;;15.16;57.31;101529.79;110640;1263;22392;-55
2023/12/20 07:52:45;;;;;;;10.90;5.60;;;;;;;15.19;57.22;101533.20;110594;1267;22141;-55
2023/12/20 07:55:12;;;;;;;9.40;5.00;;;;;;;15.22;57.18;101529.80;110540;1258;22318;-55
2023/12/20 07:57:39;;;;;;;8.50;5.40;;;;;;;15.24;57.10;101527.30;110434;1259;22402;-55
2023/12/20 08:00:07;;;;;;;11.70;6.10;;;;;;;15.26;57.02;101530.04;110506;1266;22296;-54
2023/12/20 08:02:35;;;;;;;13.50;5.60;;;;;;;15.28;56.93;101527.02;110636;1256;22745;-55
2023/12/20 08:05:01;;;;;;;12.10;5.80;;;;;;;15.28;56.78;101531.01;110661;1263;22370;-55
2023/12/20 08:07:28;;;;;;;9.70;5.40;;;;;;;15.28;56.73;101526.65;110625;1254;22284;-56
2023/12/20 08:09:56;;;;;;;9.20;5.30;;;;;;;15.29;56.74;101530.12;110613;1254;22120;-55
2023/12/20 08:12:23;;;;;;;9.70;5.20;;;;;;;15.31;56.64;101528.33;110659;1255;22389;-55
2023/12/20 08:14:50;;;;;;;12.20;5.70;;;;;;;15.32;56.65;101524.43;110646;1257;22195;-55
2023/12/20 08:17:18;;;;;;;9.30;5.20;;;;;;;15.32;56.68;101525.48;109854;1260;1002306;-55
2023/12/20 08:19:45;;;;;;;11.30;5.90;;;;;;;15.33;56.79;101517.23;110691;1256;22330;-55
2023/12/20 08:22:12;;;;;;;8.20;5.50;;;;;;;15.36;56.95;101516.09;110566;1266;22314;-55
2023/12/20 08:24:39;;;;;;;9.30;5.40;;;;;;;15.38;56.95;101509.02;110653;1255;22135;-55
2023/12/20 08:27:06;;;;;;;12.20;6.30;;;;;;;15.42;57.01;101513.67;110619;1255;22818;-55
2023/12/20 08:29:33;;;;;;;11.20;5.50;;;;;;;15.45;56.94;101516.20;110459;1270;22503;-55
2023/12/20 08:32:00;;;;;;;10.70;5.50;;;;;;;15.46;56.91;101511.29;110621;1274;22331;-55
2023/12/20 08:34:27;;;;;;;14.20;5.00;;;;;;;15.48;56.89;101508.64;110662;1262;22189;-55
2023/12/20 08:36:54;;;;;;;11.10;5.70;;;;;;;15.48;56.76;101502.48;110595;1275;22798;-55
2023/12/20 08:39:21;;;;;;;9.60;5.40;;;;;;;15.48;56.85;101494.63;110646;1255;22261;-55
2023/12/20 08:41:48;;;;;;;9.90;5.10;;;;;;;15.49;56.84;101493.73;110435;1274;22556;-55
2023/12/20 08:44:15;;;;;;;8.70;5.50;;;;;;;15.51;56.84;101489.98;110651;1256;22368;-55
2023/12/20 08:46:42;;;;;;;15.20;5.50;;;;;;;15.51;56.86;101479.85;110648;1257;22123;-55
2023/12/20 08:49:09;;;;;;;12.80;5.40;;;;;;;15.52;56.89;101473.35;110614;1260;22197;-55
2023/12/20 08:51:40;;;;;;;7.60;5.30;;;;;;;15.53;56.90;101468.58;110604;1271;22261;-55
2023/12/20 08:54:07;;;;;;;11.60;5.20;;;;;;;15.55;56.85;101464.48;109890;1256;1002306;-55
2023/12/20 08:56:34;;;;;;;8.90;5.50;;;;;;;15.57;56.83;101458.31;110604;1255;22318;-55
2023/12/20 08:59:01;;;;;;;9.90;5.20;;;;;;;15.59;56.71;101457.17;110661;1263;22204;-55
2023/12/20 09:01:28;;;;;;;10.60;4.90;;;;;;;15.61;56.61;101450.31;110653;1263;22968;-55
2023/12/20 09:03:55;;;;;;;6.00;4.70;;;;;;;15.60;56.56;101444.58;110579;1257;23058;-55
2023/12/20 09:06:22;;;;;;;11.10;4.70;;;;;;;15.59;56.56;101437.09;110597;1273;22332;-55
2023/12/20 09:08:49;;;;;;;8.10;5.10;;;;;;;15.58;56.32;101434.49;110645;1256;23171;-55
2023/12/20 09:11:17;;;;;;;9.10;5.50;;;;;;;15.55;56.22;101428.63;110437;1266;22133;-55
2023/12/20 09:13:44;;;;;;;9.30;5.20;;;;;;;15.55;56.23;101424.64;110645;1253;23065;-55
2023/12/20 09:16:12;;;;;;;10.50;6.00;;;;;;;15.56;56.14;101420.55;110633;1264;22330;-55
2023/12/20 09:18:39;;;;;;;11.20;5.40;;;;;;;15.58;56.16;101413.85;109872;1256;1002115;-55
2023/12/20 09:21:06;;;;;;;6.80;4.50;;;;;;;15.61;55.90;101412.54;110580;1266;22692;-55
2023/12/20 09:23:33;;;;;;;9.40;5.50;;;;;;;15.62;55.71;101404.09;110593;1266;22325;-55
2023/12/20 09:26:00;;;;;;;8.80;4.50;;;;;;;15.62;55.63;101399.03;109917;1257;1002214;-55
2023/12/20 09:28:27;;;;;;;9.60;5.50;;;;;;;15.61;55.50;101394.17;110587;1270;22282;-55
2023/12/20 09:30:53;;;;;;;11.70;6.60;;;;;;;15.61;55.54;101393.14;110577;1256;22859;-55
2023/12/20 09:33:20;;;;;;;12.60;5.60;;;;;;;15.59;55.42;101385.84;110655;1257;22180;-55
2023/12/20 09:35:48;;;;;;;11.70;6.70;;;;;;;15.55;55.19;101374.44;110688;1263;23045;-55
2023/12/20 09:38:17;;;;;;;8.60;5.70;;;;;;;15.52;55.38;101372.77;110660;1257;22390;-55
2023/12/20 09:40:44;;;;;;;11.50;5.50;;;;;;;15.52;55.31;101367.89;110587;1273;22424;-54
2023/12/20 09:43:12;;;;;;;11.60;5.30;;;;;;;15.52;55.10;101367.55;110414;1268;22369;-55
2023/12/20 09:45:40;;;;;;;10.20;6.40;;;;;;;15.49;55.19;101362.05;110447;1264;22158;-54
2023/12/20 09:48:09;;;;;;;10.20;6.60;;;;;;;15.48;54.96;101361.58;110611;1270;22314;-54
2023/12/20 09:50:36;;;;;;;9.10;6.20;;;;;;;15.45;54.78;101358.84;110594;1267;22147;-55
2023/12/20 09:53:05;;;;;;;9.80;5.70;;;;;;;15.41;54.88;101356.16;110634;1266;22542;-55
2023/12/20 09:55:32;;;;;;;9.80;6.00;;;;;;;15.38;55.05;101359.58;110585;1271;22368;-55
2023/12/20 09:57:59;;;;;;;8.80;5.50;;;;;;;15.37;55.11;101356.81;110327;1267;22629;-55
2023/12/20 10:00:27;;;;;;;7.10;5.00;;;;;;;15.35;55.21;101346.93;110624;1256;23153;-55
2023/12/20 10:02:57;;;;;;;9.40;5.30;;;;;;;15.37;55.36;101341.27;109938;1263;1002652;-55
2023/12/20 10:05:35;;;;;;;5.40;4.60;;;;;;;15.41;55.54;101337.65;110388;1269;22778;-55
2023/12/20 10:08:03;;;;;;;7.30;4.90;;;;;;;15.43;55.06;101331.47;110585;1273;22185;-55
2023/12/20 10:10:31;;;;;;;6.40;4.30;;;;;;;15.41;55.00;101329.05;110400;1274;22379;-55
2023/12/20 10:13:12;;;;;;;8.20;4.60;;;;;;;15.39;54.99;101321.62;110631;1269;22321;-54
2023/12/20 10:15:39;;;;;;;7.00;4.40;;;;;;;15.36;55.24;101315.58;110586;1275;22473;-55
2023/12/20 10:18:06;;;;;;;13.00;5.20;;;;;;;15.36;55.36;101311.20;110622;1274;22185;-55
2023/12/20 10:20:34;;;;;;;9.00;5.20;;;;;;;15.37;55.50;101311.01;110615;1266;22909;-55
2023/12/20 10:23:01;;;;;;;9.20;4.50;;;;;;;15.38;55.64;101305.18;110618;1274;22743;-55
2023/12/20 10:25:28;;;;;;;8.90;4.90;;;;;;;15.40;55.67;101307.58;110657;1263;23165;-55
2023/12/20 10:28:12;;;;;;;11.00;4.30;;;;;;;15.40;55.62;101303.04;110563;1274;22307;-55
2023/12/20 10:30:40;;;;;;;7.80;3.90;;;;;;;15.39;55.65;101300.61;110597;1274;22879;-55
2023/12/20 10:33:07;;;;;;;8.70;4.30;;;;;;;15.38;55.82;101303.10;110595;1271;22083;-55
2023/12/20 10:35:35;;;;;;;6.00;4.00;;;;;;;15.38;55.90;101298.90;110559;1270;22376;-56
2023/12/20 10:38:05;;;;;;;9.80;4.60;;;;;;;15.40;55.87;101294.30;110642;1266;22392;-55
2023/12/20 10:40:34;;;;;;;8.10;3.90;;;;;;;15.41;55.88;101285.33;110654;1267;22133;-55
2023/12/20 10:43:01;;;;;;;6.50;4.00;;;;;;;15.43;55.79;101281.13;110436;1273;22167;-55
2023/12/20 10:45:29;;;;;;;8.20;4.20;;;;;;;15.43;55.68;101271.69;110627;1258;22358;-55
2023/12/20 10:47:56;;;;;;;7.50;3.80;;;;;;;15.43;55.64;101275.00;110575;1273;22765;-55
2023/12/20 10:50:23;;;;;;;7.50;4.40;;;;;;;15.43;55.47;101274.98;110573;1269;22311;-55
2023/12/20 10:52:49;;;;;;;10.80;4.40;;;;;;;15.42;55.37;101271.68;110595;1270;22888;-54
2023/12/20 10:55:16;;;;;;;9.30;4.50;;;;;;;15.42;55.19;101272.38;110597;1271;22187;-55
2023/12/20 10:57:43;;;;;;;8.70;4.10;;;;;;;15.41;55.28;101264.20;110573;1273;22284;-55
2023/12/20 11:00:11;;;;;;;6.00;4.20;;;;;;;15.39;55.43;101258.31;110619;1256;22265;-54
2023/12/20 11:02:39;;;;;;;13.90;4.90;;;;;;;15.39;55.35;101254.66;110580;1275;22438;-55
2023/12/20 11:05:08;;;;;;;12.10;4.80;;;;;;;15.39;55.42;101253.23;110673;1256;22367;-54
2023/12/20 11:07:38;;;;;;;11.10;5.10;;;;;;;15.42;55.34;101252.98;110588;1268;22130;-56
2023/12/20 11:10:31;;;;;;;9.10;4.70;;;;;;;15.44;55.29;101251.17;110611;1266;22189;-54